createdAt,value
2022-10-13T00:00:46.121Z,15.40
2022-10-13T00:03:13.472Z,15.40
2022-10-13T00:05:42.598Z,15.50
2022-10-13T00:08:10.138Z,15.50
2022-10-13T00:10:42.412Z,15.50
2022-10-13T00:13:12.153Z,15.50
2022-10-13T00:15:41.685Z,15.50
2022-10-13T00:18:09.145Z,15.50
2022-10-13T00:20:36.362Z,15.50
2022-10-13T00:23:03.320Z,15.50
2022-10-13T00:25:30.168Z,15.60
2022-10-13T00:27:57.019Z,15.60
2022-10-13T00:30:35.341Z,15.60
2022-10-13T00:33:02.169Z,15.60
2022-10-13T00:35:29.027Z,15.60
2022-10-13T00:37:55.981Z,15.60
2022-10-13T00:40:23.559Z,15.70
2022-10-13T00:42:50.434Z,15.70
2022-10-13T00:45:24.762Z,15.70
2022-10-13T00:48:01.158Z,15.70
2022-10-13T00:50:33.702Z,15.80
2022-10-13T00:53:02.898Z,15.80
2022-10-13T00:55:34.065Z,15.80
2022-10-13T00:58:05.373Z,15.80
2022-10-13T01:00:34.121Z,15.80
2022-10-13T01:03:02.459Z,15.80
2022-10-13T01:05:30.278Z,15.80
2022-10-13T01:07:57.865Z,15.80
2022-10-13T01:11:03.432Z,15.90
2022-10-13T01:14:11.771Z,15.90
2022-10-13T01:17:10.539Z,15.90
2022-10-13T01:20:05.899Z,15.90
2022-10-13T01:23:07.909Z,15.90
2022-10-13T01:25:54.663Z,15.90
2022-10-13T01:28:52.755Z,15.90
2022-10-13T01:31:42.238Z,16.00
2022-10-13T01:34:48.936Z,16.00
2022-10-13T01:37:21.718Z,16.00
2022-10-13T01:40:12.271Z,16.00
2022-10-13T01:42:48.208Z,16.00
2022-10-13T01:45:19.168Z,16.00
2022-10-13T01:47:47.632Z,16.10
2022-10-13T01:50:17.095Z,16.10
2022-10-13T01:52:44.853Z,16.10
2022-10-13T01:55:13.259Z,16.20
2022-10-13T01:57:42.864Z,16.20
2022-10-13T02:00:15.962Z,16.20
2022-10-13T02:03:10.742Z,16.10
2022-10-13T02:05:40.522Z,16.10
2022-10-13T02:08:24.950Z,16.10
2022-10-13T02:11:19.436Z,16.10
2022-10-13T02:14:14.636Z,16.10
2022-10-13T02:16:44.610Z,16.10
2022-10-13T02:19:15.947Z,16.10
2022-10-13T02:21:44.387Z,16.10
2022-10-13T02:24:12.347Z,16.10
2022-10-13T02:26:39.987Z,16.10
2022-10-13T02:29:12.425Z,16.10
2022-10-13T02:31:40.689Z,16.10
2022-10-13T02:34:08.200Z,16.00
2022-10-13T02:36:37.786Z,16.10
2022-10-13T02:39:06.274Z,16.00
2022-10-13T02:41:33.642Z,16.10
2022-10-13T02:44:00.616Z,16.10
2022-10-13T02:46:34.696Z,16.00
2022-10-13T02:49:02.028Z,16.00
2022-10-13T02:51:29.087Z,15.90
2022-10-13T02:53:55.922Z,15.90
2022-10-13T02:56:22.745Z,16.00
2022-10-13T02:58:49.612Z,16.10
2022-10-13T03:01:16.835Z,16.20
2022-10-13T03:03:43.772Z,16.20
2022-10-13T03:06:10.732Z,16.20
2022-10-13T03:08:37.778Z,16.20
2022-10-13T03:11:04.832Z,16.30
2022-10-13T03:13:32.009Z,16.20
2022-10-13T03:16:07.104Z,16.30
2022-10-13T03:18:34.585Z,16.30
2022-10-13T03:21:04.877Z,16.30
2022-10-13T03:23:31.870Z,16.30
2022-10-13T03:25:59.308Z,16.30
2022-10-13T03:28:26.216Z,16.30
2022-10-13T03:31:04.385Z,16.30
2022-10-13T03:33:31.278Z,16.30
2022-10-13T03:36:03.145Z,16.30
2022-10-13T03:38:33.748Z,16.30
2022-10-13T03:41:15.458Z,16.30
2022-10-13T03:43:44.072Z,16.30
2022-10-13T03:46:16.553Z,16.40
2022-10-13T03:48:46.768Z,16.40
2022-10-13T03:51:17.361Z,16.40
2022-10-13T03:53:50.389Z,16.40
2022-10-13T03:56:23.385Z,16.40
2022-10-13T03:58:58.154Z,16.40
2022-10-13T04:01:27.435Z,16.40
2022-10-13T04:03:55.964Z,16.40
2022-10-13T04:06:24.740Z,16.40
2022-10-13T04:08:51.772Z,16.40
2022-10-13T04:11:19.603Z,16.40
2022-10-13T04:13:50.709Z,16.40
2022-10-13T04:16:23.913Z,16.50
2022-10-13T04:18:53.126Z,16.50
2022-10-13T04:21:20.289Z,16.50
2022-10-13T04:23:47.145Z,16.50
2022-10-13T04:26:20.322Z,16.50
2022-10-13T04:28:48.566Z,16.50
2022-10-13T04:31:15.690Z,16.60
2022-10-13T04:33:42.866Z,16.60
2022-10-13T04:36:12.493Z,16.50
2022-10-13T04:38:39.673Z,16.50
2022-10-13T04:41:08.179Z,16.60
2022-10-13T04:43:35.824Z,16.60
2022-10-13T04:46:08.853Z,16.50
2022-10-13T04:48:35.730Z,16.60
2022-10-13T04:51:09.043Z,16.60
2022-10-13T04:53:36.853Z,16.60
2022-10-13T04:56:10.079Z,16.60
2022-10-13T04:58:38.437Z,16.60
2022-10-13T05:01:07.404Z,16.60
2022-10-13T05:03:34.563Z,16.70
2022-10-13T05:06:01.720Z,16.70
2022-10-13T05:08:28.740Z,16.60
2022-10-13T05:11:01.091Z,16.60
2022-10-13T05:13:29.668Z,16.60
2022-10-13T05:15:58.078Z,16.60
2022-10-13T05:18:25.136Z,16.60
2022-10-13T05:20:52.006Z,16.60
2022-10-13T05:23:19.038Z,16.60
2022-10-13T05:25:45.861Z,16.50
2022-10-13T05:28:18.044Z,16.50
2022-10-13T05:30:44.915Z,16.50
2022-10-13T05:33:11.908Z,16.50
2022-10-13T05:35:38.864Z,16.60
2022-10-13T05:38:05.793Z,16.50
2022-10-13T05:40:33.595Z,16.50
2022-10-13T05:43:00.961Z,16.50
2022-10-13T05:45:32.317Z,16.50
2022-10-13T05:47:59.174Z,16.50
2022-10-13T05:50:26.130Z,16.50
2022-10-13T05:52:52.959Z,16.50
2022-10-13T05:55:20.017Z,16.50
2022-10-13T05:57:51.592Z,16.50
2022-10-13T06:00:20.062Z,16.50
2022-10-13T06:02:49.728Z,16.50
2022-10-13T06:05:19.106Z,16.50
2022-10-13T06:07:47.119Z,16.60
2022-10-13T06:10:15.605Z,16.60
2022-10-13T06:12:42.559Z,16.70
2022-10-13T06:15:09.986Z,16.70
2022-10-13T06:17:38.306Z,16.70
2022-10-13T06:20:06.909Z,16.70
2022-10-13T06:22:34.821Z,16.70
2022-10-13T06:25:02.088Z,16.70
2022-10-13T06:27:28.963Z,16.70
2022-10-13T06:29:57.579Z,16.70
2022-10-13T06:32:25.088Z,16.70
2022-10-13T06:34:52.037Z,16.60
2022-10-13T06:37:21.233Z,16.60
2022-10-13T06:39:51.761Z,16.70
2022-10-13T06:42:18.941Z,16.70
2022-10-13T06:44:47.221Z,16.70
2022-10-13T06:47:15.011Z,16.70
2022-10-13T06:49:41.945Z,16.70
2022-10-13T06:52:13.335Z,16.70
2022-10-13T06:54:40.615Z,16.70
2022-10-13T06:57:07.526Z,16.80
2022-10-13T06:59:34.787Z,16.70
2022-10-13T07:02:01.749Z,16.80
2022-10-13T07:04:28.749Z,16.80
2022-10-13T07:06:57.964Z,16.80
2022-10-13T07:09:24.940Z,16.80
2022-10-13T07:11:51.760Z,16.80
2022-10-13T07:14:18.648Z,16.80
2022-10-13T07:16:47.310Z,16.90
2022-10-13T07:19:14.154Z,16.90
2022-10-13T07:21:41.458Z,17.00
2022-10-13T07:24:10.059Z,17.00
2022-10-13T07:26:37.153Z,17.00
2022-10-13T07:29:04.336Z,17.00
2022-10-13T07:31:34.481Z,17.10
2022-10-13T07:34:01.576Z,17.10
2022-10-13T07:36:28.686Z,17.20
2022-10-13T07:38:55.603Z,17.20
2022-10-13T07:41:22.437Z,17.20
2022-10-13T07:43:57.609Z,17.20
2022-10-13T07:46:25.578Z,17.30
2022-10-13T07:48:53.902Z,17.30
2022-10-13T07:51:22.150Z,17.30
2022-10-13T07:53:49.532Z,17.40
2022-10-13T07:56:17.083Z,17.40
2022-10-13T07:58:46.653Z,17.50
2022-10-13T08:01:15.425Z,17.40
2022-10-13T08:03:45.615Z,17.50
2022-10-13T08:06:18.936Z,17.50
2022-10-13T08:08:46.050Z,17.60
2022-10-13T08:11:17.733Z,17.60
2022-10-13T08:13:49.819Z,17.70
2022-10-13T08:16:20.886Z,17.70
2022-10-13T08:18:48.659Z,17.80
2022-10-13T08:21:57.006Z,17.80
2022-10-13T08:24:12.615Z,17.80
2022-10-13T08:26:40.296Z,17.70
2022-10-13T08:29:21.461Z,17.70
2022-10-13T08:34:16.519Z,17.70
2022-10-13T08:36:43.851Z,17.80
2022-10-13T08:39:10.786Z,17.80
2022-10-13T08:41:46.383Z,17.80
2022-10-13T08:45:10.840Z,17.70
2022-10-13T08:47:38.001Z,17.70
2022-10-13T08:50:13.329Z,17.70
2022-10-13T08:52:49.199Z,17.70
2022-10-13T08:55:23.357Z,17.70
2022-10-13T08:57:50.375Z,17.70
2022-10-13T09:00:18.565Z,17.70
2022-10-13T09:02:49.782Z,17.70
2022-10-13T09:05:37.326Z,17.80
2022-10-13T09:08:13.662Z,17.80
2022-10-13T09:10:51.190Z,17.80
2022-10-13T09:13:20.094Z,17.80
2022-10-13T09:15:52.880Z,17.80
2022-10-13T09:18:30.359Z,17.90
2022-10-13T09:21:11.366Z,17.90
2022-10-13T09:23:41.156Z,18.00
2022-10-13T09:26:15.853Z,18.00
2022-10-13T09:28:43.332Z,18.10
2022-10-13T09:31:28.397Z,18.20
2022-10-13T09:34:23.635Z,18.20
2022-10-13T09:37:01.554Z,18.30
2022-10-13T09:39:29.119Z,18.30
2022-10-13T09:42:30.245Z,18.30
2022-10-13T09:45:19.144Z,18.40
2022-10-13T09:48:06.566Z,18.40
2022-10-13T09:50:35.924Z,18.40
2022-10-13T09:53:32.081Z,18.40
2022-10-13T09:56:31.227Z,18.40
2022-10-13T09:59:24.212Z,18.40
2022-10-13T10:01:52.891Z,18.40
2022-10-13T10:04:24.816Z,18.40
2022-10-13T10:06:51.897Z,18.40
2022-10-13T10:09:33.254Z,18.50
2022-10-13T10:12:02.960Z,18.50
2022-10-13T10:14:33.558Z,18.60
2022-10-13T10:17:09.195Z,18.60
2022-10-13T10:19:39.125Z,18.60
2022-10-13T10:22:29.111Z,18.60
2022-10-13T10:25:03.107Z,18.80
2022-10-13T10:27:43.780Z,18.80
2022-10-13T10:30:21.085Z,18.90
2022-10-13T10:33:14.576Z,19.00
2022-10-13T10:35:54.693Z,19.10
2022-10-13T10:38:45.619Z,19.20
2022-10-13T10:41:31.094Z,19.20
2022-10-13T10:44:04.185Z,19.30
2022-10-13T10:46:40.450Z,19.20
2022-10-13T10:49:29.692Z,19.20
2022-10-13T10:51:57.934Z,19.10
2022-10-13T10:54:49.508Z,19.10
2022-10-13T10:57:49.262Z,19.10
2022-10-13T11:00:19.839Z,19.10
2022-10-13T11:03:31.677Z,19.10
2022-10-13T11:06:17.590Z,19.10
2022-10-13T11:08:47.483Z,19.10
2022-10-13T11:11:29.311Z,19.20
2022-10-13T11:14:07.317Z,19.20
2022-10-13T11:16:58.330Z,19.20
2022-10-13T11:19:29.963Z,19.20
2022-10-13T11:21:59.522Z,19.20
2022-10-13T11:24:41.435Z,19.20
2022-10-13T11:27:16.765Z,19.20
2022-10-13T11:29:49.162Z,19.10
2022-10-13T11:32:28.107Z,19.10
2022-10-13T11:35:00.707Z,19.20
2022-10-13T11:37:55.683Z,19.20
2022-10-13T11:40:54.971Z,19.20
2022-10-13T11:43:51.251Z,19.20
2022-10-13T11:46:27.254Z,19.20
2022-10-13T11:49:13.093Z,19.20
2022-10-13T11:52:18.450Z,19.20
2022-10-13T11:54:50.823Z,19.10
2022-10-13T11:57:23.040Z,19.00
2022-10-13T11:59:55.283Z,19.00
2022-10-13T12:02:29.402Z,18.90
2022-10-13T12:05:24.309Z,18.90
2022-10-13T12:07:54.718Z,18.80
2022-10-13T12:10:33.637Z,18.80
2022-10-13T12:13:01.472Z,18.80
2022-10-13T12:15:30.330Z,18.80
2022-10-13T12:17:57.247Z,18.70
2022-10-13T12:20:27.475Z,18.70
2022-10-13T12:22:56.346Z,18.60
2022-10-13T12:25:29.515Z,18.60
2022-10-13T12:28:01.026Z,18.60
2022-10-13T12:30:31.332Z,18.60
2022-10-13T12:33:00.884Z,18.60
2022-10-13T12:35:32.586Z,18.70
2022-10-13T12:38:06.077Z,18.70
2022-10-13T12:40:35.586Z,18.70
2022-10-13T12:43:05.002Z,18.70
2022-10-13T12:45:34.412Z,18.60
2022-10-13T12:48:01.303Z,18.70
2022-10-13T12:50:28.210Z,18.60
2022-10-13T12:53:21.986Z,18.60
2022-10-13T12:55:55.912Z,18.50
2022-10-13T12:58:29.010Z,18.50
2022-10-13T13:01:05.106Z,18.50
2022-10-13T13:03:32.489Z,18.50
2022-10-13T13:06:14.318Z,18.50
2022-10-13T13:08:43.335Z,18.50
2022-10-13T13:11:37.622Z,18.50
2022-10-13T13:14:36.468Z,18.60
2022-10-13T13:17:52.917Z,18.60
2022-10-13T13:20:31.751Z,18.60
2022-10-13T13:22:59.428Z,18.60
2022-10-13T13:25:27.029Z,18.70
2022-10-13T13:27:53.903Z,18.80
2022-10-13T13:30:23.001Z,18.80
2022-10-13T13:32:50.343Z,18.80
2022-10-13T13:35:17.733Z,18.80
2022-10-13T13:37:49.612Z,18.80
2022-10-13T13:40:22.721Z,18.90
2022-10-13T13:42:49.696Z,18.90
2022-10-13T13:45:19.440Z,18.90
2022-10-13T13:47:47.554Z,19.00
2022-10-13T13:50:20.329Z,19.00
2022-10-13T13:52:56.445Z,19.10
2022-10-13T13:55:23.397Z,19.10
2022-10-13T13:57:50.345Z,19.10
2022-10-13T14:00:20.727Z,19.10
2022-10-13T14:02:55.370Z,19.10
2022-10-13T14:05:22.363Z,19.00
2022-10-13T14:07:49.283Z,19.00
2022-10-13T14:10:16.437Z,19.00
2022-10-13T14:12:43.314Z,19.00
2022-10-13T14:15:10.582Z,19.10
2022-10-13T14:17:37.428Z,19.10
2022-10-13T14:20:04.735Z,19.10
2022-10-13T14:22:40.214Z,19.10
2022-10-13T14:25:07.902Z,19.10
2022-10-13T14:27:35.448Z,19.10
2022-10-13T14:30:03.370Z,19.10
2022-10-13T14:32:30.281Z,19.10
2022-10-13T14:34:57.171Z,19.10
2022-10-13T14:37:26.784Z,19.00
2022-10-13T14:39:57.379Z,19.00
2022-10-13T14:42:24.326Z,19.00
2022-10-13T14:44:51.249Z,19.00
2022-10-13T14:47:18.312Z,19.00
2022-10-13T14:49:45.455Z,19.00
2022-10-13T14:52:12.384Z,19.00
2022-10-13T14:54:44.535Z,19.00
2022-10-13T14:57:15.777Z,19.00
2022-10-13T14:59:43.406Z,19.00
2022-10-13T15:02:11.847Z,19.00
2022-10-13T15:04:41.456Z,19.00
2022-10-13T15:07:08.358Z,19.00
2022-10-13T15:09:52.197Z,19.00
2022-10-13T15:12:23.233Z,19.00
2022-10-13T15:14:50.349Z,19.00
2022-10-13T15:17:17.226Z,19.00
2022-10-13T15:19:44.122Z,19.00
2022-10-13T15:22:11.200Z,19.00
2022-10-13T15:24:38.048Z,19.00
2022-10-13T15:27:04.902Z,18.90
2022-10-13T15:29:32.118Z,19.00
2022-10-13T15:32:12.219Z,19.00
2022-10-13T15:34:42.202Z,19.00
2022-10-13T15:37:09.082Z,18.90
2022-10-13T15:39:36.011Z,18.90
2022-10-13T15:42:03.728Z,18.90
2022-10-13T15:44:40.724Z,18.90
2022-10-13T15:47:18.129Z,18.90
2022-10-13T15:49:45.039Z,18.90
2022-10-13T15:52:12.014Z,18.90
2022-10-13T15:54:39.034Z,18.90
2022-10-13T15:57:05.920Z,18.90
2022-10-13T15:59:32.751Z,18.90
2022-10-13T16:01:59.598Z,19.00
2022-10-13T16:04:26.459Z,18.90
2022-10-13T16:06:53.425Z,18.90
2022-10-13T16:09:20.232Z,18.90
2022-10-13T16:11:47.138Z,18.80
2022-10-13T16:14:13.982Z,18.70
2022-10-13T16:16:41.128Z,18.80
2022-10-13T16:19:08.606Z,18.70
2022-10-13T16:21:35.623Z,18.70
2022-10-13T16:24:05.208Z,18.70
2022-10-13T16:26:32.068Z,18.70
2022-10-13T16:28:59.346Z,18.70
2022-10-13T16:31:26.261Z,18.60
2022-10-13T16:33:54.184Z,18.60
2022-10-13T16:36:21.095Z,18.70
2022-10-13T16:38:52.821Z,18.70
2022-10-13T16:41:19.801Z,18.70
2022-10-13T16:43:47.904Z,18.70
2022-10-13T16:46:17.389Z,18.70
2022-10-13T16:48:45.912Z,18.80
2022-10-13T16:51:18.287Z,18.80
2022-10-13T16:54:04.189Z,18.90
2022-10-13T16:56:31.725Z,18.90
2022-10-13T16:59:00.977Z,19.00
2022-10-13T17:01:29.609Z,19.00
2022-10-13T17:03:57.390Z,19.00
2022-10-13T17:06:26.390Z,19.00
2022-10-13T17:08:56.668Z,18.90
2022-10-13T17:11:26.569Z,18.90
2022-10-13T17:13:53.777Z,19.00
2022-10-13T17:16:20.968Z,18.90
2022-10-13T17:18:48.142Z,18.80
2022-10-13T17:21:17.660Z,18.80
2022-10-13T17:23:48.592Z,18.80
2022-10-13T17:26:17.200Z,18.80
2022-10-13T17:28:44.491Z,18.70
2022-10-13T17:31:13.528Z,18.60
2022-10-13T17:33:42.265Z,18.60
2022-10-13T17:36:29.188Z,18.50
2022-10-13T17:39:01.501Z,18.40
2022-10-13T17:41:28.390Z,18.30
2022-10-13T17:43:55.463Z,18.30
2022-10-13T17:46:41.594Z,18.30
2022-10-13T17:49:11.295Z,18.20
2022-10-13T17:51:38.910Z,18.10
2022-10-13T17:54:06.818Z,18.10
2022-10-13T17:56:35.138Z,18.00
2022-10-13T17:59:02.412Z,18.00
2022-10-13T18:01:31.470Z,17.90
2022-10-13T18:04:04.814Z,17.90
2022-10-13T18:06:38.627Z,17.80
2022-10-13T18:09:14.199Z,17.80
2022-10-13T18:11:46.866Z,17.70
2022-10-13T18:14:17.082Z,17.70
2022-10-13T18:16:45.647Z,17.70
2022-10-13T18:19:13.181Z,17.60
2022-10-13T18:21:40.202Z,17.60
2022-10-13T18:24:07.529Z,17.60
2022-10-13T18:26:37.427Z,17.50
2022-10-13T18:29:06.164Z,17.60
2022-10-13T18:31:35.244Z,17.60
2022-10-13T18:34:04.794Z,17.70
2022-10-13T18:36:38.758Z,17.60
2022-10-13T18:39:12.119Z,17.60
2022-10-13T18:41:39.897Z,17.60
2022-10-13T18:44:08.246Z,17.60
2022-10-13T18:46:36.495Z,17.60
2022-10-13T18:49:04.953Z,17.60
2022-10-13T18:51:36.177Z,17.60
2022-10-13T18:54:04.834Z,17.60
2022-10-13T18:56:33.500Z,17.60
2022-10-13T18:59:01.863Z,17.60
2022-10-13T19:01:30.722Z,17.50
2022-10-13T19:03:58.226Z,17.50
2022-10-13T19:06:27.051Z,17.50
2022-10-13T19:08:58.676Z,17.50
2022-10-13T19:11:25.640Z,17.50
2022-10-13T19:13:53.292Z,17.50
2022-10-13T19:16:22.024Z,17.50
2022-10-13T19:18:49.429Z,17.50
2022-10-13T19:21:17.687Z,17.50
2022-10-13T19:23:44.558Z,17.40
2022-10-13T19:26:32.605Z,17.40
2022-10-13T19:29:02.632Z,17.40
2022-10-13T19:31:31.619Z,17.30
2022-10-13T19:33:59.710Z,17.30
2022-10-13T19:36:34.864Z,17.20
2022-10-13T19:39:17.234Z,17.20
2022-10-13T19:41:45.582Z,17.10
2022-10-13T19:44:13.188Z,17.10
2022-10-13T19:46:42.060Z,17.10
2022-10-13T19:49:09.138Z,17.10
2022-10-13T19:51:37.163Z,17.00
2022-10-13T19:54:04.473Z,17.00
2022-10-13T19:56:31.794Z,16.90
2022-10-13T19:58:59.409Z,16.90
2022-10-13T20:01:26.843Z,16.80
2022-10-13T20:03:54.304Z,16.70
2022-10-13T20:06:21.814Z,16.70
2022-10-13T20:08:48.954Z,16.60
2022-10-13T20:11:23.934Z,16.60
2022-10-13T20:13:52.443Z,16.60
2022-10-13T20:16:22.601Z,16.60
2022-10-13T20:18:55.124Z,16.50
2022-10-13T20:21:26.375Z,16.40
2022-10-13T20:23:53.867Z,16.40
2022-10-13T20:26:21.213Z,16.30
2022-10-13T20:28:49.763Z,16.30
2022-10-13T20:31:18.775Z,16.30
2022-10-13T20:33:47.028Z,16.20
2022-10-13T20:36:16.140Z,16.20
2022-10-13T20:38:43.107Z,16.20
2022-10-13T20:41:21.215Z,16.20
2022-10-13T20:43:49.426Z,16.20
2022-10-13T20:46:18.251Z,16.10
2022-10-13T20:49:09.308Z,16.10
2022-10-13T20:51:32.019Z,16.10
2022-10-13T20:53:58.907Z,16.10
2022-10-13T20:56:26.421Z,16.00
2022-10-13T20:58:54.005Z,16.00
2022-10-13T21:01:22.612Z,16.00
2022-10-13T21:03:56.060Z,16.00
2022-10-13T21:06:25.292Z,16.00
2022-10-13T21:08:52.688Z,15.90
2022-10-13T21:11:21.207Z,15.90
2022-10-13T21:13:49.172Z,15.90
2022-10-13T21:16:27.105Z,15.90
2022-10-13T21:18:55.263Z,15.90
2022-10-13T21:21:30.644Z,15.90
2022-10-13T21:24:03.669Z,15.80
2022-10-13T21:26:32.276Z,15.80
2022-10-13T21:29:00.474Z,15.80
2022-10-13T21:31:30.119Z,15.80
2022-10-13T21:33:57.841Z,15.80
2022-10-13T21:36:30.367Z,15.70
2022-10-13T21:39:03.332Z,15.70
2022-10-13T21:41:30.719Z,15.70
2022-10-13T21:43:57.860Z,15.70
2022-10-13T21:46:30.833Z,15.70
2022-10-13T21:49:00.166Z,15.60
2022-10-13T21:51:30.181Z,15.60
2022-10-13T21:53:59.564Z,15.60
2022-10-13T21:56:27.881Z,15.60
2022-10-13T21:58:55.962Z,15.60
2022-10-13T22:01:23.452Z,15.50
2022-10-13T22:03:54.986Z,15.50
2022-10-13T22:06:26.620Z,15.40
2022-10-13T22:08:55.399Z,15.30
2022-10-13T22:11:24.574Z,15.30
2022-10-13T22:13:52.230Z,15.30
2022-10-13T22:16:22.702Z,15.20
2022-10-13T22:18:52.726Z,15.20
2022-10-13T22:21:22.650Z,15.20
2022-10-13T22:23:49.911Z,15.20
2022-10-13T22:26:18.035Z,15.20
2022-10-13T22:28:48.234Z,15.20
2022-10-13T22:31:15.383Z,15.20
2022-10-13T22:33:43.894Z,15.20
2022-10-13T22:36:17.115Z,15.20
2022-10-13T22:38:47.192Z,15.20
2022-10-13T22:41:15.770Z,15.20
2022-10-13T22:43:44.442Z,15.10
2022-10-13T22:46:13.005Z,15.10
2022-10-13T22:48:41.089Z,15.10
2022-10-13T22:51:16.331Z,15.10
2022-10-13T22:53:44.403Z,15.10
2022-10-13T22:56:27.696Z,15.10
2022-10-13T22:59:08.175Z,15.00
2022-10-13T23:01:35.762Z,15.00
2022-10-13T23:04:02.753Z,14.90
2022-10-13T23:06:31.500Z,14.90
2022-10-13T23:09:02.233Z,14.90
2022-10-13T23:11:29.082Z,14.90
2022-10-13T23:13:57.203Z,14.90
2022-10-13T23:16:26.245Z,14.80
2022-10-13T23:18:53.327Z,14.80
2022-10-13T23:21:26.158Z,14.80
2022-10-13T23:24:01.426Z,14.80
2022-10-13T23:26:29.197Z,14.70
2022-10-13T23:28:57.251Z,14.60
2022-10-13T23:31:25.721Z,14.50
2022-10-13T23:33:53.137Z,14.50
2022-10-13T23:36:22.970Z,14.40
2022-10-13T23:38:57.540Z,14.40
2022-10-13T23:41:24.667Z,14.40
2022-10-13T23:43:51.557Z,14.40
2022-10-13T23:46:18.847Z,14.30
2022-10-13T23:48:45.926Z,14.20
2022-10-13T23:51:17.064Z,14.20
2022-10-13T23:53:44.498Z,14.10
2022-10-13T23:56:13.126Z,14.10
2022-10-13T23:58:41.783Z,14.10
